Time;durP1;ratioP1;P1;durP2;ratioP2;P2;SDS_P1;SDS_P2;PMS_P1;PMS_P2;Temp;Humidity;BMP_temperature;BMP_pressure;BME280_temperature;BME280_humidity;BME280_pressure;Samples;Min_cycle;Max_cycle;Signal;HPM_P1;HPM_P2
2021/06/16 00:01:06;;;;;;;2.50;2.30;;;22.90;99.90;;;;;;4971299;28;20484;-79
2021/06/16 00:03:35;;;;;;;2.53;2.33;;;22.80;99.90;;;;;;4970594;28;20965;-80
2021/06/16 00:06:03;;;;;;;2.00;1.73;;;22.80;99.90;;;;;;4969720;28;20470;-81
2021/06/16 00:08:33;;;;;;;1.70;1.60;;;22.80;99.90;;;;;;4970841;28;20963;-78
2021/06/16 00:11:01;;;;;;;2.63;1.83;;;22.80;99.90;;;;;;4959093;28;20921;-81
2021/06/16 00:13:29;;;;;;;2.43;2.23;;;22.80;99.90;;;;;;4969158;28;20455;-80
2021/06/16 00:15:58;;;;;;;3.30;2.60;;;22.70;99.90;;;;;;4962621;28;20460;-80
2021/06/16 00:18:26;;;;;;;1.93;1.80;;;22.70;99.90;;;;;;4968222;28;20455;-79
2021/06/16 00:20:54;;;;;;;2.30;2.00;;;22.70;99.90;;;;;;4969803;28;20464;-79
2021/06/16 00:23:23;;;;;;;3.20;2.00;;;22.70;99.90;;;;;;4974622;28;21300;-79
2021/06/16 00:25:53;;;;;;;2.80;1.97;;;22.70;99.90;;;;;;4972354;28;20496;-77
2021/06/16 00:28:21;;;;;;;2.37;1.90;;;22.70;99.90;;;;;;4973274;28;20776;-80
2021/06/16 00:30:49;;;;;;;2.50;2.13;;;22.60;99.90;;;;;;4973221;28;20501;-80
2021/06/16 00:33:18;;;;;;;1.87;1.77;;;22.60;99.90;;;;;;4966990;28;20472;-78
2021/06/16 00:35:46;;;;;;;3.00;2.57;;;22.60;99.90;;;;;;4982464;28;20525;-78
2021/06/16 00:38:14;;;;;;;4.50;2.30;;;22.60;99.90;;;;;;4975175;28;20447;-79
2021/06/16 00:40:43;;;;;;;2.30;2.10;;;22.50;99.90;;;;;;4969340;28;20487;-79
2021/06/16 00:43:13;;;;;;;2.57;1.90;;;22.50;99.90;;;;;;4973721;28;20528;-81
2021/06/16 00:45:41;;;;;;;3.43;1.70;;;22.40;99.90;;;;;;4974376;28;20470;-78
2021/06/16 00:48:09;;;;;;;3.67;3.37;;;22.40;99.90;;;;;;4973878;28;20448;-78
2021/06/16 00:50:39;;;;;;;2.30;2.10;;;22.40;99.90;;;;;;4978160;28;20483;-78
2021/06/16 00:53:08;;;;;;;2.30;2.10;;;22.40;99.90;;;;;;4971951;28;20514;-79
2021/06/16 00:55:38;;;;;;;4.70;1.93;;;22.30;99.90;;;;;;4973947;28;20517;-79
2021/06/16 00:58:07;;;;;;;2.50;2.03;;;22.30;99.90;;;;;;4974213;28;20458;-78
2021/06/16 01:00:42;;;;;;;4.00;2.07;;;22.30;99.90;;;;;;4973538;28;20476;-77
2021/06/16 01:03:16;;;;;;;1.77;1.67;;;22.20;99.90;;;;;;4972349;28;20462;-78
2021/06/16 01:05:48;;;;;;;1.70;1.60;;;22.20;99.90;;;;;;4973515;28;20648;-76
2021/06/16 01:08:21;;;;;;;2.23;1.97;;;22.10;99.90;;;;;;4972040;28;20602;-80
2021/06/16 01:10:50;;;;;;;4.00;1.80;;;22.10;99.90;;;;;;4972852;28;20513;-79
2021/06/16 01:13:26;;;;;;;1.93;1.80;;;22.20;99.90;;;;;;4980778;28;20464;-77
2021/06/16 01:16:05;;;;;;;2.90;1.70;;;22.30;99.90;;;;;;4973385;28;20502;-78
2021/06/16 01:18:42;;;;;;;2.00;1.77;;;22.30;99.90;;;;;;4972764;28;20994;-79
2021/06/16 01:21:11;;;;;;;2.70;1.77;;;22.20;99.90;;;;;;4974167;28;20478;-79
2021/06/16 01:23:49;;;;;;;4.00;2.33;;;22.20;99.90;;;;;;4973864;28;20518;-82
2021/06/16 01:26:24;;;;;;;1.60;1.50;;;22.20;99.90;;;;;;4959128;28;20500;-79
2021/06/16 01:28:58;;;;;;;2.13;1.97;;;22.20;99.90;;;;;;4952286;29;20835;-78
2021/06/16 01:31:27;;;;;;;1.70;1.60;;;22.20;99.90;;;;;;4962928;28;20468;-79
2021/06/16 01:33:56;;;;;;;2.30;2.10;;;22.30;99.90;;;;;;4967269;28;20461;-78
2021/06/16 01:36:26;;;;;;;2.40;2.00;;;22.10;99.90;;;;;;4964519;28;20458;-81
2021/06/16 01:38:55;;;;;;;2.60;1.73;;;22.10;99.90;;;;;;4972543;28;21138;-79
2021/06/16 01:41:25;;;;;;;1.97;1.87;;;22.10;99.90;;;;;;4971382;28;20464;-81
2021/06/16 01:43:56;;;;;;;2.50;2.33;;;22.00;99.90;;;;;;4971431;28;21025;-78
2021/06/16 01:46:25;;;;;;;2.53;2.00;;;22.00;99.90;;;;;;4972111;28;20475;-80
2021/06/16 01:48:55;;;;;;;3.00;2.70;;;22.00;99.90;;;;;;4970762;28;20534;-79
2021/06/16 01:51:24;;;;;;;1.80;1.70;;;22.00;99.90;;;;;;4969931;28;20488;-79
2021/06/16 01:53:54;;;;;;;5.40;2.00;;;21.90;99.90;;;;;;4971339;28;20521;-78
2021/06/16 01:56:23;;;;;;;3.53;1.90;;;21.80;99.90;;;;;;4973643;28;20529;-81
2021/06/16 01:58:54;;;;;;;2.90;1.80;;;21.80;99.90;;;;;;4973741;28;20841;-79
2021/06/16 02:01:25;;;;;;;2.00;1.90;;;21.80;99.90;;;;;;4971798;28;20466;-79
2021/06/16 02:03:54;;;;;;;2.13;1.93;;;21.80;99.90;;;;;;4973880;28;20962;-78
2021/06/16 02:06:26;;;;;;;2.77;2.30;;;21.80;99.90;;;;;;4972399;28;20618;-79
2021/06/16 02:08:55;;;;;;;2.00;1.90;;;21.80;99.90;;;;;;4970031;28;20451;-77
2021/06/16 02:11:24;;;;;;;2.50;2.10;;;21.80;99.90;;;;;;4969719;28;20463;-78
2021/06/16 02:13:56;;;;;;;2.90;2.00;;;21.80;99.90;;;;;;4973102;28;20482;-80
2021/06/16 02:16:32;;;;;;;2.40;2.20;;;21.80;99.90;;;;;;4970919;28;20460;-80
2021/06/16 02:19:05;;;;;;;4.17;2.30;;;21.60;99.90;;;;;;4958031;28;20467;-77
2021/06/16 02:21:33;;;;;;;2.33;2.13;;;21.70;99.90;;;;;;4972152;28;20518;-80
2021/06/16 02:24:01;;;;;;;3.00;2.80;;;21.70;99.90;;;;;;4970982;28;20974;-79
2021/06/16 02:26:30;;;;;;;2.23;2.03;;;21.70;99.90;;;;;;4958452;28;20481;-79
2021/06/16 02:28:59;;;;;;;2.60;2.40;;;21.70;99.90;;;;;;4979271;28;20966;-78
2021/06/16 02:31:27;;;;;;;2.60;2.40;;;21.70;99.90;;;;;;4970412;28;20473;-79
2021/06/16 02:33:56;;;;;;;2.77;2.57;;;21.70;99.90;;;;;;4971131;28;20468;-78
2021/06/16 02:36:26;;;;;;;2.80;2.60;;;21.60;99.90;;;;;;4962142;28;20453;-79
2021/06/16 02:38:59;;;;;;;2.80;2.27;;;21.60;99.90;;;;;;4952622;28;20854;-79
2021/06/16 02:41:29;;;;;;;3.30;2.30;;;21.60;99.90;;;;;;4971790;28;20757;-79
2021/06/16 02:43:59;;;;;;;3.10;2.20;;;21.60;99.90;;;;;;4972320;28;21241;-79
2021/06/16 02:46:30;;;;;;;2.17;2.07;;;21.60;99.90;;;;;;4971398;28;20481;-80
2021/06/16 02:48:59;;;;;;;2.70;2.00;;;21.60;99.90;;;;;;4971329;28;20458;-80
2021/06/16 02:51:28;;;;;;;2.33;2.00;;;21.50;99.90;;;;;;4969733;28;20451;-79
2021/06/16 02:53:56;;;;;;;2.53;2.33;;;21.50;99.90;;;;;;4971037;28;20451;-80
2021/06/16 02:56:25;;;;;;;2.20;2.00;;;21.50;99.90;;;;;;4970058;28;20453;-81
2021/06/16 02:58:54;;;;;;;2.63;2.43;;;21.50;99.90;;;;;;4970448;28;20491;-80
2021/06/16 03:01:24;;;;;;;3.23;2.07;;;21.50;99.90;;;;;;4971323;28;20455;-79
2021/06/16 03:03:54;;;;;;;2.63;2.30;;;21.40;99.90;;;;;;4969714;28;20463;-80
2021/06/16 03:06:24;;;;;;;2.97;2.30;;;21.50;99.90;;;;;;4969444;28;20491;-81
2021/06/16 03:08:55;;;;;;;2.83;2.47;;;21.40;99.90;;;;;;4970952;28;20458;-79
2021/06/16 03:11:24;;;;;;;2.33;2.10;;;21.40;99.90;;;;;;4968486;28;20514;-78
2021/06/16 03:13:53;;;;;;;2.77;2.57;;;21.30;99.90;;;;;;4961269;28;20458;-79
2021/06/16 03:16:23;;;;;;;2.93;2.57;;;21.40;99.90;;;;;;4957465;28;20449;-78
2021/06/16 03:18:54;;;;;;;3.73;2.27;;;21.30;99.90;;;;;;4971423;28;20455;-81
2021/06/16 03:21:22;;;;;;;2.83;2.20;;;21.30;99.90;;;;;;4969293;28;20464;-80
2021/06/16 03:23:50;;;;;;;2.87;2.67;;;21.30;99.90;;;;;;4982568;28;20467;-81
2021/06/16 03:26:20;;;;;;;3.90;2.47;;;21.30;99.90;;;;;;4969567;28;20855;-79
2021/06/16 03:28:49;;;;;;;4.50;2.20;;;21.30;99.90;;;;;;4968793;28;21157;-80
2021/06/16 03:31:18;;;;;;;3.80;2.13;;;21.30;99.90;;;;;;4968774;28;20489;-78
2021/06/16 03:33:47;;;;;;;3.03;2.00;;;21.20;99.90;;;;;;4969942;28;20476;-78
2021/06/16 03:36:19;;;;;;;3.40;2.00;;;21.20;99.90;;;;;;4966232;28;20468;-79
2021/06/16 03:38:50;;;;;;;2.80;2.53;;;21.20;99.90;;;;;;4968104;28;20463;-80
2021/06/16 03:41:20;;;;;;;2.63;2.30;;;21.20;99.90;;;;;;4957474;28;20720;-80
2021/06/16 03:43:50;;;;;;;2.73;2.53;;;21.20;99.90;;;;;;4970198;28;20468;-79
2021/06/16 03:46:21;;;;;;;3.20;2.80;;;21.20;99.90;;;;;;4978743;28;21064;-79
2021/06/16 03:48:52;;;;;;;2.80;2.60;;;21.20;99.90;;;;;;4970628;28;21014;-79
2021/06/16 03:51:21;;;;;;;3.67;2.30;;;21.20;99.90;;;;;;4969374;28;20455;-79
2021/06/16 03:53:51;;;;;;;2.80;2.23;;;21.20;99.90;;;;;;4968330;28;20487;-79
2021/06/16 03:56:21;;;;;;;3.77;2.70;;;21.20;99.90;;;;;;4970909;28;20514;-78
2021/06/16 03:58:50;;;;;;;2.70;2.50;;;21.20;99.90;;;;;;4971491;28;20458;-81
2021/06/16 04:01:18;;;;;;;2.17;2.07;;;21.20;99.90;;;;;;4978414;28;20491;-79
2021/06/16 04:03:47;;;;;;;2.37;2.03;;;21.20;99.90;;;;;;4971691;28;20964;-80
2021/06/16 04:06:16;;;;;;;2.50;2.30;;;21.20;99.90;;;;;;4971853;28;20463;-80
2021/06/16 04:08:46;;;;;;;3.67;2.43;;;21.20;99.90;;;;;;4954385;28;20488;-83
2021/06/16 04:11:15;;;;;;;2.60;2.23;;;21.20;99.90;;;;;;4964745;28;20993;-80
2021/06/16 04:13:44;;;;;;;4.03;2.97;;;21.30;99.90;;;;;;4964287;28;20463;-77
2021/06/16 04:16:12;;;;;;;2.27;2.10;;;21.30;99.90;;;;;;4960962;28;20982;-81
2021/06/16 04:18:42;;;;;;;2.30;2.10;;;21.30;99.90;;;;;;4974582;28;20509;-79
2021/06/16 04:21:11;;;;;;;4.90;3.33;;;21.30;99.90;;;;;;4972988;28;20500;-80
2021/06/16 04:23:39;;;;;;;3.43;2.97;;;21.30;99.90;;;;;;4974948;28;20451;-79
2021/06/16 04:26:08;;;;;;;3.73;2.77;;;21.30;99.90;;;;;;4987481;28;20539;-78
2021/06/16 04:28:37;;;;;;;2.53;2.33;;;21.30;99.90;;;;;;4969896;28;20853;-80
2021/06/16 04:31:05;;;;;;;2.33;2.13;;;21.30;99.90;;;;;;4963926;28;20485;-79
2021/06/16 04:33:33;;;;;;;2.80;2.50;;;21.30;99.90;;;;;;4973317;28;20458;-79
2021/06/16 04:36:02;;;;;;;2.77;2.33;;;21.30;99.90;;;;;;4974855;28;20449;-78
2021/06/16 04:38:31;;;;;;;2.73;2.37;;;21.40;99.90;;;;;;4978713;28;20634;-78
2021/06/16 04:41:00;;;;;;;3.90;3.50;;;21.40;99.90;;;;;;4971268;28;20489;-80
2021/06/16 04:43:29;;;;;;;2.80;2.60;;;21.40;99.90;;;;;;4968534;28;20463;-83
2021/06/16 04:45:58;;;;;;;2.50;2.30;;;21.40;99.90;;;;;;4972520;28;20447;-78
2021/06/16 04:48:26;;;;;;;3.70;2.87;;;21.40;99.90;;;;;;4971708;28;20473;-79
2021/06/16 04:50:54;;;;;;;4.53;2.40;;;21.40;99.90;;;;;;4975133;28;20469;-79
2021/06/16 04:53:23;;;;;;;2.50;2.40;;;21.40;99.90;;;;;;4972975;28;20498;-79
2021/06/16 04:55:51;;;;;;;3.13;2.67;;;21.50;99.90;;;;;;4973160;28;20466;-80
2021/06/16 04:58:20;;;;;;;2.47;2.27;;;21.40;99.90;;;;;;4970244;28;20489;-80
2021/06/16 05:00:49;;;;;;;3.60;2.97;;;21.50;99.90;;;;;;4970758;28;20474;-80
2021/06/16 05:03:17;;;;;;;3.90;2.80;;;21.50;99.90;;;;;;4973959;28;20450;-82
2021/06/16 05:05:46;;;;;;;4.70;3.00;;;21.60;99.90;;;;;;4974413;28;20461;-80
2021/06/16 05:08:14;;;;;;;2.67;2.47;;;21.60;99.90;;;;;;4974555;28;20912;-81
2021/06/16 05:10:42;;;;;;;3.00;2.67;;;21.60;99.90;;;;;;4970529;28;20483;-69
2021/06/16 05:13:10;;;;;;;3.30;2.73;;;21.60;99.90;;;;;;4968319;28;20477;-69
2021/06/16 05:15:39;;;;;;;2.60;2.40;;;21.50;99.90;;;;;;4967328;28;20547;-69
2021/06/16 05:18:09;;;;;;;3.93;3.10;;;21.50;99.90;;;;;;4970926;28;20456;-69
2021/06/16 05:20:37;;;;;;;3.40;3.10;;;21.50;99.90;;;;;;4969207;28;20472;-70
2021/06/16 05:23:05;;;;;;;3.83;3.53;;;21.50;99.90;;;;;;4971401;28;20524;-68
2021/06/16 05:25:33;;;;;;;3.07;2.73;;;21.50;99.90;;;;;;4968606;28;20456;-69
2021/06/16 05:28:02;;;;;;;4.03;2.70;;;21.50;99.90;;;;;;4969671;28;20525;-70
2021/06/16 05:30:31;;;;;;;5.73;3.23;;;21.50;99.90;;;;;;4970448;28;20483;-72
2021/06/16 05:32:59;;;;;;;3.33;2.67;;;21.50;99.90;;;;;;4970436;28;20495;-69
2021/06/16 05:35:31;;;;;;;4.13;3.17;;;21.50;99.90;;;;;;4968412;28;20894;-70
2021/06/16 05:37:59;;;;;;;4.70;3.50;;;21.50;99.90;;;;;;4971100;28;20528;-70
2021/06/16 05:40:27;;;;;;;7.90;4.27;;;21.60;99.90;;;;;;4967245;28;20538;-69
2021/06/16 05:42:56;;;;;;;9.30;4.50;;;21.60;99.90;;;;;;4970293;28;21049;-70
2021/06/16 05:45:24;;;;;;;5.50;4.50;;;21.60;99.90;;;;;;4967962;28;21453;-69
2021/06/16 05:47:52;;;;;;;4.47;4.07;;;21.70;99.90;;;;;;4963787;28;20486;-68
2021/06/16 05:50:21;;;;;;;7.27;5.27;;;21.70;99.90;;;;;;4969172;28;20542;-69
2021/06/16 05:52:50;;;;;;;6.00;4.23;;;21.70;99.90;;;;;;4969576;28;20456;-70
2021/06/16 05:55:18;;;;;;;4.30;3.90;;;21.80;99.90;;;;;;4968803;28;21017;-67
2021/06/16 05:57:46;;;;;;;7.00;3.87;;;21.80;99.90;;;;;;4965147;28;20486;-69
2021/06/16 06:00:15;;;;;;;9.30;4.20;;;21.90;99.90;;;;;;4969145;28;21018;-69
2021/06/16 06:02:44;;;;;;;4.40;3.00;;;22.00;99.90;;;;;;4971175;28;20463;-69
2021/06/16 06:05:13;;;;;;;3.43;2.93;;;22.00;99.90;;;;;;4970004;28;20481;-68
2021/06/16 06:07:41;;;;;;;3.03;2.83;;;22.00;99.90;;;;;;4970936;28;20485;-70
2021/06/16 06:10:11;;;;;;;7.00;3.60;;;22.00;99.90;;;;;;4966936;28;20478;-70
2021/06/16 06:12:40;;;;;;;2.53;2.30;;;22.10;99.90;;;;;;4969718;28;20466;-69
2021/06/16 06:15:12;;;;;;;2.77;2.57;;;22.20;99.90;;;;;;4971709;28;20493;-69
2021/06/16 06:17:40;;;;;;;2.60;2.40;;;22.20;99.90;;;;;;4968138;28;20943;-69
2021/06/16 06:20:10;;;;;;;2.20;2.10;;;22.30;99.90;;;;;;4966941;28;20483;-69
2021/06/16 06:22:39;;;;;;;4.60;2.77;;;22.30;99.90;;;;;;4970866;28;20447;-69
2021/06/16 06:25:08;;;;;;;4.80;4.30;;;22.40;99.90;;;;;;4969571;28;20509;-67
2021/06/16 06:27:38;;;;;;;8.20;3.97;;;22.40;99.90;;;;;;4969937;28;20828;-71
2021/06/16 06:30:07;;;;;;;3.30;2.40;;;22.50;99.90;;;;;;4962536;28;20544;-70
2021/06/16 06:32:36;;;;;;;1.90;1.60;;;22.50;99.90;;;;;;4968975;28;20551;-69
2021/06/16 06:35:05;;;;;;;3.10;2.20;;;22.50;99.90;;;;;;4969920;28;20529;-72
2021/06/16 06:37:34;;;;;;;3.07;2.50;;;22.60;99.90;;;;;;4959293;28;20439;-72
2021/06/16 06:40:04;;;;;;;2.40;2.20;;;22.60;99.90;;;;;;4967286;28;20470;-69
2021/06/16 06:42:32;;;;;;;5.30;2.40;;;22.70;99.90;;;;;;4969463;28;20951;-71
2021/06/16 06:45:02;;;;;;;4.53;2.17;;;22.70;99.90;;;;;;4969604;28;20682;-71
2021/06/16 06:47:31;;;;;;;3.10;2.20;;;22.80;99.90;;;;;;4969977;28;20537;-69
2021/06/16 06:49:59;;;;;;;2.60;2.27;;;22.90;99.90;;;;;;4969890;28;20546;-70
2021/06/16 06:52:27;;;;;;;2.93;2.50;;;22.90;99.90;;;;;;4968730;28;20491;-70
2021/06/16 06:54:57;;;;;;;3.57;2.90;;;23.00;99.90;;;;;;4967348;28;20547;-69
2021/06/16 06:57:25;;;;;;;6.83;2.10;;;23.00;99.90;;;;;;4968869;28;20471;-69
2021/06/16 06:59:53;;;;;;;2.40;2.20;;;23.10;99.90;;;;;;4969965;28;20554;-70
2021/06/16 07:02:25;;;;;;;2.37;2.17;;;23.30;99.90;;;;;;4967625;28;20458;-69
2021/06/16 07:04:53;;;;;;;2.87;2.40;;;23.30;99.90;;;;;;4968149;28;21003;-71
2021/06/16 07:07:21;;;;;;;1.83;1.73;;;23.40;99.90;;;;;;4968505;28;20459;-81
2021/06/16 07:09:50;;;;;;;1.90;1.80;;;23.50;99.90;;;;;;4969324;28;20494;-81
2021/06/16 07:12:18;;;;;;;2.10;1.90;;;23.60;99.90;;;;;;4963297;28;20455;-78
2021/06/16 07:14:47;;;;;;;2.00;1.90;;;23.70;99.90;;;;;;4970412;28;20458;-79
2021/06/16 07:17:15;;;;;;;2.23;1.70;;;23.70;99.90;;;;;;4969417;28;20649;-79
2021/06/16 07:19:45;;;;;;;4.13;1.93;;;23.70;99.90;;;;;;4971204;28;20479;-78
2021/06/16 07:22:13;;;;;;;1.97;1.80;;;23.70;99.90;;;;;;4971140;28;20471;-79
2021/06/16 07:24:41;;;;;;;2.90;2.37;;;23.70;99.90;;;;;;4970028;28;20467;-77
2021/06/16 07:27:10;;;;;;;2.17;1.97;;;23.80;99.90;;;;;;4970286;28;20459;-80
2021/06/16 07:29:39;;;;;;;2.17;1.97;;;23.80;99.90;;;;;;4969264;28;20541;-78
2021/06/16 07:32:08;;;;;;;2.23;2.13;;;23.90;99.90;;;;;;4969537;28;20943;-77
2021/06/16 07:34:36;;;;;;;2.00;1.80;;;23.90;99.90;;;;;;4968429;28;21011;-77
2021/06/16 07:37:05;;;;;;;3.40;2.37;;;23.90;99.90;;;;;;4969045;28;20603;-78
2021/06/16 07:39:34;;;;;;;5.03;2.40;;;24.00;99.90;;;;;;4969977;28;20467;-77
2021/06/16 07:42:02;;;;;;;2.70;1.87;;;24.00;99.90;;;;;;4968978;28;20451;-78
2021/06/16 07:44:31;;;;;;;1.70;1.60;;;24.10;99.90;;;;;;4968961;28;20820;-78
2021/06/16 07:47:00;;;;;;;2.10;1.90;;;24.10;99.90;;;;;;4968772;28;20459;-80
2021/06/16 07:49:28;;;;;;;2.40;2.00;;;24.10;99.90;;;;;;4969057;28;20495;-79
2021/06/16 07:51:56;;;;;;;2.77;1.67;;;24.20;99.90;;;;;;4968888;28;20451;-79
2021/06/16 07:54:26;;;;;;;3.40;2.20;;;24.20;99.90;;;;;;4969644;28;20522;-78
2021/06/16 07:56:54;;;;;;;4.37;1.90;;;24.30;99.90;;;;;;4972826;28;20513;-80
2021/06/16 07:59:22;;;;;;;2.10;1.83;;;24.30;99.90;;;;;;4970070;28;20479;-78
2021/06/16 08:01:50;;;;;;;2.90;2.17;;;24.30;99.90;;;;;;4969694;28;20458;-78
2021/06/16 08:04:22;;;;;;;1.90;1.80;;;24.30;99.90;;;;;;4961782;28;20832;-77
2021/06/16 08:06:51;;;;;;;2.53;1.83;;;24.40;99.90;;;;;;4968152;28;20483;-79
2021/06/16 08:09:19;;;;;;;1.90;1.80;;;24.40;99.90;;;;;;4969862;28;20636;-78
2021/06/16 08:11:50;;;;;;;3.00;2.20;;;24.50;99.90;;;;;;4971143;28;20455;-80
2021/06/16 08:14:18;;;;;;;3.10;2.00;;;24.50;99.90;;;;;;4960247;28;21035;-80
2021/06/16 08:16:46;;;;;;;3.83;2.10;;;24.60;99.90;;;;;;4967768;28;20514;-81
2021/06/16 08:19:14;;;;;;;2.90;1.90;;;24.60;99.90;;;;;;4965223;28;20459;-79
2021/06/16 08:21:43;;;;;;;1.73;1.63;;;24.70;99.90;;;;;;4968980;28;20465;-80
2021/06/16 08:24:11;;;;;;;2.27;2.10;;;24.70;99.90;;;;;;4970058;28;21011;-79
2021/06/16 08:26:39;;;;;;;4.17;1.90;;;24.70;99.90;;;;;;4968834;28;20447;-80
2021/06/16 08:29:09;;;;;;;3.50;2.07;;;24.70;99.90;;;;;;4965996;28;20853;-77
2021/06/16 08:31:37;;;;;;;2.53;2.33;;;24.80;99.90;;;;;;4967521;28;20478;-79
2021/06/16 08:34:06;;;;;;;4.17;2.53;;;24.80;99.90;;;;;;4970358;28;20557;-78
2021/06/16 08:36:34;;;;;;;3.13;1.93;;;24.90;99.90;;;;;;4968416;28;20459;-81
2021/06/16 08:39:19;;;;;;;3.37;1.70;;;24.90;99.90;;;;;;4968834;28;20982;-78
2021/06/16 08:41:48;;;;;;;2.23;1.70;;;25.00;99.90;;;;;;4968949;28;20455;-80
2021/06/16 08:44:18;;;;;;;2.43;1.63;;;25.00;99.90;;;;;;4971377;28;20529;-79
2021/06/16 08:46:48;;;;;;;2.00;1.80;;;25.10;99.90;;;;;;4966133;28;20506;-80
2021/06/16 08:49:16;;;;;;;2.60;1.80;;;25.10;99.90;;;;;;4967818;28;21014;-81
2021/06/16 08:51:45;;;;;;;3.53;1.93;;;25.10;99.90;;;;;;4968815;28;20459;-79
2021/06/16 08:54:13;;;;;;;1.93;1.73;;;25.20;99.90;;;;;;4972257;28;20868;-78
2021/06/16 08:56:41;;;;;;;2.03;1.63;;;25.30;99.90;;;;;;4971163;28;20459;-79
2021/06/16 08:59:09;;;;;;;2.23;2.00;;;25.30;99.90;;;;;;4969192;28;20825;-80
2021/06/16 09:01:39;;;;;;;3.40;2.17;;;25.30;99.90;;;;;;4975319;28;20506;-80
2021/06/16 09:04:07;;;;;;;1.97;1.83;;;25.40;99.90;;;;;;4971268;28;20487;-80
2021/06/16 09:06:36;;;;;;;1.90;1.80;;;25.40;99.90;;;;;;4971823;28;20943;-80
2021/06/16 09:09:06;;;;;;;2.33;2.13;;;25.40;99.90;;;;;;4969727;28;20451;-77
2021/06/16 09:11:48;;;;;;;2.67;1.73;;;25.40;99.90;;;;;;4963986;28;20459;-81
2021/06/16 09:14:19;;;;;;;2.57;1.70;;;25.50;99.90;;;;;;4969582;28;21013;-78
2021/06/16 09:16:49;;;;;;;1.70;1.53;;;25.50;99.90;;;;;;4973230;28;20450;-81
2021/06/16 09:19:19;;;;;;;1.70;1.60;;;25.50;99.90;;;;;;4970371;28;20470;-79
2021/06/16 09:21:50;;;;;;;1.80;1.70;;;25.70;99.90;;;;;;4970234;28;20471;-79
2021/06/16 09:24:18;;;;;;;2.30;1.93;;;25.70;99.90;;;;;;4971166;28;20459;-80
2021/06/16 09:26:47;;;;;;;2.57;2.00;;;25.70;99.90;;;;;;4970455;28;20459;-80
2021/06/16 09:29:15;;;;;;;5.60;1.90;;;25.70;99.90;;;;;;4967815;28;20463;-79
2021/06/16 09:31:44;;;;;;;3.10;2.47;;;25.90;99.90;;;;;;4971308;28;20471;-80
2021/06/16 09:34:18;;;;;;;2.43;1.63;;;25.90;99.90;;;;;;4970936;28;20538;-80
2021/06/16 09:36:49;;;;;;;2.50;1.63;;;25.90;99.90;;;;;;4971469;28;20443;-78
2021/06/16 09:39:20;;;;;;;2.97;2.07;;;26.00;99.90;;;;;;4968622;28;20486;-80
2021/06/16 09:42:01;;;;;;;2.80;1.93;;;26.00;99.90;;;;;;4970944;28;20459;-79
2021/06/16 09:44:45;;;;;;;2.30;2.00;;;26.00;99.90;;;;;;4960822;28;20483;-78
2021/06/16 09:47:15;;;;;;;2.30;2.10;;;26.00;99.90;;;;;;4968190;28;20475;-80
2021/06/16 09:49:50;;;;;;;2.43;2.23;;;26.10;99.90;;;;;;4971158;28;20487;-79
2021/06/16 09:52:35;;;;;;;1.60;1.50;;;26.10;99.90;;;;;;4970985;28;20474;-77
2021/06/16 09:55:06;;;;;;;2.77;1.87;;;26.20;99.90;;;;;;4969020;28;20455;-79
2021/06/16 09:57:36;;;;;;;1.90;1.80;;;26.20;99.90;;;;;;4971386;28;20478;-78
2021/06/16 10:00:09;;;;;;;1.80;1.60;;;26.20;99.90;;;;;;4972090;28;20534;-79
2021/06/16 10:02:40;;;;;;;2.23;2.13;;;26.30;99.90;;;;;;4971475;28;21244;-78
2021/06/16 10:05:14;;;;;;;2.80;2.60;;;26.20;99.90;;;;;;4972617;28;20971;-80
2021/06/16 10:07:43;;;;;;;4.17;2.13;;;26.30;99.90;;;;;;4969257;28;20458;-80
2021/06/16 10:10:12;;;;;;;3.43;2.50;;;26.30;99.90;;;;;;4971969;28;20490;-80
2021/06/16 10:12:42;;;;;;;2.30;2.20;;;26.30;99.90;;;;;;4971053;28;20459;-77
2021/06/16 10:15:14;;;;;;;1.73;1.60;;;26.40;99.90;;;;;;4971815;28;20455;-78
2021/06/16 10:17:43;;;;;;;2.80;2.60;;;26.40;99.90;;;;;;4969229;28;20447;-78
2021/06/16 10:20:15;;;;;;;1.93;1.83;;;26.40;99.90;;;;;;4970787;28;20471;-79
2021/06/16 10:22:44;;;;;;;1.80;1.70;;;26.50;99.90;;;;;;4970148;28;20451;-79
2021/06/16 10:25:13;;;;;;;2.63;2.27;;;26.50;99.90;;;;;;4971293;28;20459;-79
2021/06/16 10:27:45;;;;;;;1.90;1.80;;;26.60;99.90;;;;;;4963954;28;20458;-78
2021/06/16 10:30:16;;;;;;;2.20;1.80;;;26.70;99.90;;;;;;4965685;28;20506;-78
2021/06/16 10:32:47;;;;;;;2.53;2.33;;;26.70;99.90;;;;;;4970982;28;20459;-76
2021/06/16 10:35:35;;;;;;;4.50;2.23;;;26.80;99.90;;;;;;4969914;28;20462;-79
2021/06/16 10:38:11;;;;;;;2.00;1.83;;;26.80;99.90;;;;;;4973453;28;20525;-78
2021/06/16 10:40:46;;;;;;;1.83;1.73;;;26.90;99.90;;;;;;4970229;28;20542;-78
2021/06/16 10:43:32;;;;;;;1.97;1.87;;;26.90;99.90;;;;;;4966355;28;20469;-80
2021/06/16 10:46:06;;;;;;;2.40;2.20;;;26.90;99.90;;;;;;4970174;28;20823;-78
2021/06/16 10:48:46;;;;;;;2.20;1.80;;;26.90;99.90;;;;;;4968800;28;20467;-80
2021/06/16 10:51:43;;;;;;;5.23;2.30;;;26.90;99.90;;;;;;4970885;28;21088;-81
2021/06/16 10:54:19;;;;;;;1.90;1.80;;;27.00;99.90;;;;;;4953935;28;20521;-77
2021/06/16 10:56:54;;;;;;;1.97;1.80;;;27.00;99.90;;;;;;4965515;28;20986;-78
2021/06/16 11:00:04;;;;;;;3.53;2.20;;;27.00;99.90;;;;;;4970249;28;20487;-79
2021/06/16 11:03:06;;;;;;;3.00;2.50;;;27.10;99.90;;;;;;4968920;28;20451;-78
2021/06/16 11:05:45;;;;;;;3.10;1.70;;;27.10;99.90;;;;;;4969744;28;20513;-80
2021/06/16 11:08:51;;;;;;;2.57;2.37;;;27.10;99.90;;;;;;4964872;28;20482;-78
2021/06/16 11:11:21;;;;;;;3.23;2.10;;;27.10;99.90;;;;;;4969523;28;20479;-79
2021/06/16 11:13:49;;;;;;;2.80;2.17;;;27.20;99.90;;;;;;4970508;28;20482;-79
2021/06/16 11:16:53;;;;;;;1.90;1.80;;;27.20;99.90;;;;;;4971163;28;20490;-77
2021/06/16 11:19:37;;;;;;;1.70;1.60;;;27.20;99.90;;;;;;4967462;28;20502;-79
2021/06/16 11:22:29;;;;;;;3.10;2.10;;;27.30;99.90;;;;;;4969097;28;20455;-79
2021/06/16 11:25:29;;;;;;;3.13;2.83;;;27.30;99.90;;;;;;4965028;28;20459;-80
2021/06/16 11:28:20;;;;;;;3.83;2.20;;;27.30;99.90;;;;;;4943665;28;20474;-80
2021/06/16 11:31:09;;;;;;;2.23;1.97;;;27.30;99.90;;;;;;4960662;28;20490;-78
2021/06/16 11:33:45;;;;;;;3.90;2.50;;;27.10;99.90;;;;;;4970802;28;20448;-78
2021/06/16 11:36:17;;;;;;;2.83;2.20;;;27.20;99.90;;;;;;4961142;28;20542;-78
2021/06/16 11:38:55;;;;;;;2.40;2.30;;;27.20;99.90;;;;;;4954193;28;20510;-78
2021/06/16 11:41:24;;;;;;;2.20;2.10;;;27.20;99.90;;;;;;4964954;28;20986;-78
2021/06/16 11:43:55;;;;;;;3.30;1.87;;;27.30;99.90;;;;;;4969620;28;20459;-78
2021/06/16 11:46:28;;;;;;;2.97;2.67;;;27.30;99.90;;;;;;4969730;28;21026;-76
2021/06/16 11:49:02;;;;;;;4.47;2.10;;;27.30;99.90;;;;;;4964739;28;20455;-75
2021/06/16 11:51:33;;;;;;;2.27;2.07;;;27.40;99.90;;;;;;4965159;28;20487;-79
2021/06/16 11:54:19;;;;;;;2.00;1.90;;;27.40;99.90;;;;;;4964620;28;20455;-79
2021/06/16 11:56:48;;;;;;;3.63;2.00;;;27.50;99.90;;;;;;4970198;28;20461;-76
2021/06/16 11:59:33;;;;;;;3.03;2.07;;;27.60;99.90;;;;;;4966071;28;20520;-78
2021/06/16 12:02:10;;;;;;;2.10;2.00;;;27.60;99.90;;;;;;4966439;28;20462;-78
2021/06/16 12:04:53;;;;;;;2.70;2.37;;;27.60;99.90;;;;;;4967299;28;20486;-77
2021/06/16 12:07:23;;;;;;;4.17;2.10;;;27.60;99.90;;;;;;4968853;28;20491;-78
2021/06/16 12:09:56;;;;;;;3.83;1.80;;;27.60;99.90;;;;;;4966710;28;20904;-79
2021/06/16 12:12:25;;;;;;;4.17;2.50;;;27.60;99.90;;;;;;4968674;28;20483;-79
2021/06/16 12:15:12;;;;;;;3.07;2.60;;;27.70;99.90;;;;;;4969183;28;20459;-79
2021/06/16 12:18:00;;;;;;;2.57;2.47;;;27.70;99.90;;;;;;4968833;28;20458;-78
2021/06/16 12:20:31;;;;;;;3.00;2.70;;;27.70;99.90;;;;;;4970648;28;20475;-78
2021/06/16 12:23:00;;;;;;;2.80;2.00;;;27.80;99.90;;;;;;4969315;28;21033;-80
2021/06/16 12:25:30;;;;;;;4.90;2.23;;;27.80;99.90;;;;;;4969465;28;20459;-78
2021/06/16 12:27:59;;;;;;;2.20;2.00;;;27.90;99.90;;;;;;4971159;28;20469;-78
2021/06/16 12:30:32;;;;;;;2.50;2.30;;;27.90;99.90;;;;;;4969278;28;20559;-79
2021/06/16 12:33:14;;;;;;;2.13;2.03;;;28.00;99.90;;;;;;4972109;28;20585;-79
2021/06/16 12:35:54;;;;;;;3.07;2.40;;;28.00;99.90;;;;;;4970920;28;20459;-77
2021/06/16 12:38:35;;;;;;;1.90;1.80;;;28.00;99.90;;;;;;4961181;28;20867;-79
2021/06/16 12:41:03;;;;;;;3.30;2.43;;;27.90;99.90;;;;;;4970721;28;20819;-80
2021/06/16 12:43:31;;;;;;;2.63;2.00;;;27.90;99.90;;;;;;4968817;28;20475;-78
2021/06/16 12:46:01;;;;;;;2.00;1.80;;;27.90;99.90;;;;;;4969821;28;20459;-78
2021/06/16 12:48:29;;;;;;;2.43;2.23;;;27.90;99.90;;;;;;4968114;28;20451;-79
2021/06/16 12:51:00;;;;;;;3.00;2.27;;;27.90;99.90;;;;;;4969635;28;20585;-78
2021/06/16 12:53:30;;;;;;;2.00;1.80;;;28.00;99.90;;;;;;4970799;28;20455;-78
2021/06/16 12:56:01;;;;;;;2.30;2.10;;;28.00;99.90;;;;;;4970135;28;20462;-81
2021/06/16 12:58:30;;;;;;;2.07;1.97;;;28.10;99.90;;;;;;4968901;28;20470;-78
2021/06/16 13:01:00;;;;;;;3.10;2.80;;;28.10;99.90;;;;;;4969382;28;20529;-78
2021/06/16 13:03:31;;;;;;;2.27;2.07;;;28.10;99.90;;;;;;4966141;28;21036;-79
2021/06/16 13:06:02;;;;;;;2.33;2.13;;;28.10;99.90;;;;;;4968589;28;20850;-79
2021/06/16 13:08:35;;;;;;;2.60;2.20;;;28.20;99.90;;;;;;4971236;28;20458;-78